createdAt,value
2019-01-02T00:01:11.995Z,100316.14
2019-01-02T00:04:15.495Z,100307.34
2019-01-02T00:07:19.001Z,100310.48
2019-01-02T00:10:22.489Z,100319.83
2019-01-02T00:13:26.089Z,100319.42
2019-01-02T00:16:29.532Z,100316.91
2019-01-02T00:19:32.991Z,100330.12
2019-01-02T00:22:36.612Z,100333.59
2019-01-02T00:25:41.537Z,100334.92
2019-01-02T00:28:46.473Z,100337.75
2019-01-02T00:31:50.382Z,100322.84
2019-01-02T00:34:55.403Z,100320.20
2019-01-02T00:37:58.838Z,100316.23
2019-01-02T00:41:09.298Z,100330.77
2019-01-02T00:44:12.734Z,100334.73
2019-01-02T00:47:17.335Z,100330.31
2019-01-02T00:50:20.913Z,100326.03
2019-01-02T00:53:24.461Z,100331.81
2019-01-02T00:56:29.453Z,100329.63
2019-01-02T00:59:35.391Z,100334.91
2019-01-02T01:02:38.916Z,100342.84
2019-01-02T01:05:48.350Z,100341.16
2019-01-02T01:08:51.860Z,100348.13
2019-01-02T01:11:55.346Z,100357.38
2019-01-02T01:14:59.255Z,100363.04
2019-01-02T01:18:03.180Z,100363.04
2019-01-02T01:21:07.075Z,100373.61
2019-01-02T01:24:11.611Z,100377.21
2019-01-02T01:27:15.061Z,100371.09
2019-01-02T01:30:18.601Z,100371.92
2019-01-02T01:33:24.145Z,100378.16
2019-01-02T01:36:28.662Z,100387.41
2019-01-02T01:39:32.209Z,100382.67
2019-01-02T01:42:40.803Z,100389.28
2019-01-02T01:45:45.310Z,100394.57
2019-01-02T01:48:48.786Z,100403.82
2019-01-02T01:51:53.353Z,100401.18
2019-01-02T01:54:56.876Z,100407.41
2019-01-02T01:58:00.357Z,100398.62
2019-01-02T02:01:03.848Z,100413.66
2019-01-02T02:04:07.472Z,100405.72
2019-01-02T02:07:11.113Z,100423.45
2019-01-02T02:10:17.421Z,100423.45
2019-01-02T02:13:22.979Z,100429.60
2019-01-02T02:16:27.495Z,100419.95
2019-01-02T02:19:31.017Z,100411.19
2019-01-02T02:22:34.502Z,100419.48
2019-01-02T02:25:38.005Z,100418.16
2019-01-02T02:28:43.612Z,100419.48
2019-01-02T02:31:47.054Z,100423.45
2019-01-02T02:34:51.642Z,100422.50
2019-01-02T02:37:55.304Z,100427.78
2019-01-02T02:40:58.992Z,100419.48
2019-01-02T02:44:02.506Z,100424.77
2019-01-02T02:47:06.395Z,100422.41
2019-01-02T02:50:14.524Z,100425.14
2019-01-02T02:53:18.141Z,100428.73
2019-01-02T02:56:24.067Z,100430.43
2019-01-02T02:59:29.031Z,100430.06
2019-01-02T03:02:32.926Z,100438.36
2019-01-02T03:05:38.854Z,100432.70
2019-01-02T03:08:44.289Z,100444.23
2019-01-02T03:11:47.913Z,100440.27
2019-01-02T03:14:51.425Z,100433.66
2019-01-02T03:17:54.872Z,100439.89
2019-01-02T03:20:58.426Z,100446.09
2019-01-02T03:24:01.923Z,100436.75
2019-01-02T03:27:05.428Z,100438.08
2019-01-02T03:30:18.042Z,100438.56
2019-01-02T03:33:24.106Z,100443.45
2019-01-02T03:36:28.613Z,100439.03
2019-01-02T03:39:32.065Z,100451.78
2019-01-02T03:42:35.626Z,100445.63
2019-01-02T03:45:39.131Z,100448.73
2019-01-02T03:48:42.635Z,100450.06
2019-01-02T03:51:46.133Z,100457.98
2019-01-02T03:54:49.634Z,100454.52
2019-01-02T03:57:55.177Z,100457.98
2019-01-02T04:00:58.672Z,100457.06
2019-01-02T04:04:02.189Z,100459.71
2019-01-02T04:07:10.024Z,100463.27
2019-01-02T04:10:13.795Z,100465.91
2019-01-02T04:13:17.302Z,100468.56
2019-01-02T04:16:21.054Z,100469.51
2019-01-02T04:19:24.554Z,100476.12
2019-01-02T04:22:28.004Z,100479.99
2019-01-02T04:25:31.494Z,100487.92
2019-01-02T04:28:35.108Z,100476.89
2019-01-02T04:31:38.610Z,100487.06
2019-01-02T04:34:42.102Z,100490.56
2019-01-02T04:37:47.655Z,100480.08
2019-01-02T04:40:51.156Z,100488.01
2019-01-02T04:43:55.682Z,100486.69
2019-01-02T04:46:59.180Z,100484.99
2019-01-02T04:50:04.527Z,100486.41
2019-01-02T04:53:10.145Z,100474.80
2019-01-02T04:56:13.775Z,100484.13
2019-01-02T04:59:18.317Z,100476.66
2019-01-02T05:02:21.813Z,100482.34
2019-01-02T05:05:27.357Z,100476.66
2019-01-02T05:08:32.937Z,100484.13
2019-01-02T05:11:42.444Z,100484.99
2019-01-02T05:14:45.946Z,100483.67
2019-01-02T05:17:49.461Z,100480.16
2019-01-02T05:20:53.090Z,100486.31
2019-01-02T05:23:57.568Z,100482.72
2019-01-02T05:27:01.072Z,100492.34
2019-01-02T05:30:11.430Z,100490.65
2019-01-02T05:33:16.070Z,100488.01
2019-01-02T05:36:20.583Z,100484.99
2019-01-02T05:39:24.106Z,100486.31
2019-01-02T05:42:27.550Z,100491.60
2019-01-02T05:45:33.137Z,100502.17
2019-01-02T05:48:36.641Z,100501.77
2019-01-02T05:51:40.138Z,100509.23
2019-01-02T05:54:45.692Z,100506.68
2019-01-02T05:57:49.222Z,100516.30
2019-01-02T06:00:56.993Z,100511.97
2019-01-02T06:04:01.438Z,100523.94
2019-01-02T06:07:04.904Z,100520.84
2019-01-02T06:10:11.389Z,100524.72
2019-01-02T06:13:21.852Z,100527.83
2019-01-02T06:16:25.369Z,100526.05
2019-01-02T06:19:30.897Z,100528.77
2019-01-02T06:22:34.388Z,100525.27
2019-01-02T06:25:37.919Z,100526.67
2019-01-02T06:28:43.441Z,100532.45
2019-01-02T06:31:49.029Z,100542.94
2019-01-02T06:34:52.508Z,100543.02
2019-01-02T06:37:55.934Z,100543.02
2019-01-02T06:40:59.455Z,100553.67
2019-01-02T06:44:03.006Z,100567.27
2019-01-02T06:47:07.530Z,100572.17
2019-01-02T06:50:14.608Z,100586.22
2019-01-02T06:53:19.241Z,100593.69
2019-01-02T06:56:24.782Z,100592.83
2019-01-02T06:59:35.256Z,100581.02
2019-01-02T07:02:38.694Z,100590.67
2019-01-02T07:05:42.253Z,100592.45
2019-01-02T07:08:45.752Z,100601.16
2019-01-02T07:11:50.337Z,100607.27
2019-01-02T07:14:54.104Z,100612.56
2019-01-02T07:17:58.719Z,100625.77
2019-01-02T07:21:02.229Z,100633.25
2019-01-02T07:24:07.764Z,100634.11
2019-01-02T07:27:11.299Z,100631.06
2019-01-02T07:30:17.633Z,100644.28
2019-01-02T07:33:25.651Z,100645.14
2019-01-02T07:36:54.434Z,100644.69
2019-01-02T07:40:26.004Z,100646.00
2019-01-02T07:44:00.728Z,100645.52
2019-01-02T07:47:59.498Z,100642.95
2019-01-02T07:51:55.509Z,100653.52
2019-01-02T07:55:36.640Z,100659.76
2019-01-02T07:59:21.850Z,100658.81
2019-01-02T08:03:01.245Z,100666.36
2019-01-02T08:06:30.351Z,100675.61
2019-01-02T08:10:13.615Z,100675.98
2019-01-02T08:13:58.871Z,100679.20
2019-01-02T08:17:49.734Z,100683.17
2019-01-02T08:21:32.217Z,100686.64
2019-01-02T08:25:11.127Z,100695.81
2019-01-02T08:28:59.878Z,100699.77
2019-01-02T08:32:30.363Z,100694.11
2019-01-02T08:36:14.776Z,100690.15
2019-01-02T08:40:01.351Z,100684.00
2019-01-02T08:43:38.679Z,100688.45
2019-01-02T08:47:33.034Z,100706.17
2019-01-02T08:51:01.873Z,100712.23
2019-01-02T08:54:36.095Z,100711.30
2019-01-02T08:58:15.118Z,100720.91
2019-01-02T09:02:09.258Z,100721.33
2019-01-02T09:05:39.160Z,100736.61
2019-01-02T09:09:17.846Z,100737.48
2019-01-02T09:12:50.559Z,100755.11
2019-01-02T09:16:28.965Z,100763.75
2019-01-02T09:20:14.457Z,100763.27
2019-01-02T09:23:50.521Z,100776.02
2019-01-02T09:27:28.485Z,100768.95
2019-01-02T09:31:07.866Z,100790.48
2019-01-02T09:34:47.256Z,100791.80
2019-01-02T09:38:36.250Z,100792.17
2019-01-02T09:42:12.034Z,100789.91
2019-01-02T09:45:40.311Z,100797.47
2019-01-02T09:49:19.244Z,100799.08
2019-01-02T09:52:59.161Z,100803.92
2019-01-02T09:56:20.307Z,100809.20
2019-01-02T09:59:51.877Z,100813.55
2019-01-02T10:03:35.294Z,100811.31
2019-01-02T10:07:09.400Z,100818.30
2019-01-02T10:10:43.733Z,100830.20
2019-01-02T10:14:43.990Z,100826.23
2019-01-02T10:18:33.142Z,100829.25
2019-01-02T10:22:02.204Z,100838.05
2019-01-02T10:25:42.280Z,100835.86
2019-01-02T10:29:21.037Z,100849.45
2019-01-02T10:32:54.018Z,100854.74
2019-01-02T10:36:41.692Z,100862.22
2019-01-02T10:40:37.959Z,100872.72
2019-01-02T10:44:04.125Z,100878.38
2019-01-02T10:47:45.621Z,100885.94
2019-01-02T10:51:32.535Z,100888.20
2019-01-02T10:55:11.061Z,100889.90
2019-01-02T10:58:45.329Z,100891.22
2019-01-02T11:02:24.058Z,100892.55
2019-01-02T11:05:53.114Z,100889.90
2019-01-02T11:09:40.254Z,100891.67
2019-01-02T11:13:36.481Z,100894.24
2019-01-02T11:17:07.123Z,100892.55
2019-01-02T11:20:53.843Z,100895.56
2019-01-02T11:24:41.362Z,100903.04
2019-01-02T11:28:06.052Z,100941.75
2019-01-02T11:31:55.754Z,100962.08
2019-01-02T11:35:43.907Z,100971.33
2019-01-02T11:38:58.345Z,100960.19
2019-01-02T11:42:38.011Z,100971.55
2019-01-02T11:45:41.604Z,100975.97
2019-01-02T11:48:45.095Z,100966.64
2019-01-02T11:51:48.534Z,100980.24
2019-01-02T11:54:52.102Z,100974.95
2019-01-02T11:57:58.366Z,100985.00
2019-01-02T12:01:01.966Z,100991.54
2019-01-02T12:04:06.499Z,100992.41
2019-01-02T12:07:10.000Z,101000.34
2019-01-02T12:10:13.938Z,101013.00
2019-01-02T12:13:17.525Z,101016.02
2019-01-02T12:16:21.108Z,101011.14
2019-01-02T12:19:24.625Z,101018.14
2019-01-02T12:22:28.235Z,101019.84
2019-01-02T12:25:41.872Z,101014.02
2019-01-02T12:28:46.411Z,101027.24
2019-01-02T12:31:49.906Z,101026.86
2019-01-02T12:34:53.478Z,101037.75
2019-01-02T12:37:57.086Z,101042.17
2019-01-02T12:41:00.588Z,101043.11
2019-01-02T12:44:04.027Z,101042.55
2019-01-02T12:47:07.597Z,101049.16
2019-01-02T12:50:11.086Z,101051.80
2019-01-02T12:53:14.612Z,101055.31
2019-01-02T12:56:18.103Z,101059.73
2019-01-02T12:59:26.915Z,101059.73
2019-01-02T13:03:13.017Z,101067.59
2019-01-02T13:06:37.934Z,101078.11
2019-01-02T13:10:22.099Z,101085.59
2019-01-02T13:13:55.461Z,101099.27
2019-01-02T13:17:47.695Z,101099.75
2019-01-02T13:21:28.367Z,101108.94
2019-01-02T13:25:01.540Z,101116.88
2019-01-02T13:28:13.311Z,101114.68
2019-01-02T13:31:30.073Z,101114.53
2019-01-02T13:34:57.490Z,101119.34
2019-01-02T13:38:24.061Z,101121.00
2019-01-02T13:42:02.823Z,101129.39
2019-01-02T13:45:13.513Z,101131.89
2019-01-02T13:48:44.547Z,101139.97
2019-01-02T13:51:52.350Z,101147.45
2019-01-02T13:54:59.195Z,101157.09
2019-01-02T13:58:03.755Z,101160.61
2019-01-02T14:01:07.246Z,101174.29
2019-01-02T14:04:11.950Z,101184.41
2019-01-02T14:07:15.657Z,101180.52
2019-01-02T14:10:19.305Z,101193.67
2019-01-02T14:13:22.931Z,101189.85
2019-01-02T14:16:27.417Z,101191.94
2019-01-02T14:19:37.066Z,101195.00
2019-01-02T14:22:41.598Z,101192.87
2019-01-02T14:25:45.094Z,101201.69
2019-01-02T14:28:48.615Z,101203.84
2019-01-02T14:31:52.101Z,101206.48
2019-01-02T14:34:55.717Z,101206.48
2019-01-02T14:37:59.345Z,101209.55
2019-01-02T14:41:02.795Z,101210.88
2019-01-02T14:44:06.307Z,101217.86
2019-01-02T14:47:09.807Z,101218.66
2019-01-02T14:50:14.454Z,101223.16
2019-01-02T14:53:18.166Z,101228.83
2019-01-02T14:56:21.729Z,101234.13
2019-01-02T14:59:25.240Z,101233.73
2019-01-02T15:02:29.779Z,101237.64
2019-01-02T15:05:34.299Z,101251.31
2019-01-02T15:08:37.802Z,101255.70
2019-01-02T15:11:41.409Z,101255.70
2019-01-02T15:14:45.012Z,101255.70
2019-01-02T15:17:49.523Z,101257.79
2019-01-02T15:20:53.132Z,101256.47
2019-01-02T15:23:56.754Z,101265.20
2019-01-02T15:27:00.252Z,101265.58
2019-01-02T15:30:03.851Z,101266.91
2019-01-02T15:33:07.465Z,101273.52
2019-01-02T15:36:11.039Z,101272.27
2019-01-02T15:39:14.642Z,101275.23
2019-01-02T15:42:18.160Z,101277.87
2019-01-02T15:45:21.736Z,101281.84
2019-01-02T15:48:25.357Z,101288.88
2019-01-02T15:51:29.864Z,101284.97
2019-01-02T15:54:33.397Z,101286.75
2019-01-02T15:57:36.869Z,101293.67
2019-01-02T16:00:40.378Z,101292.42
2019-01-02T16:03:43.955Z,101289.78
2019-01-02T16:06:47.613Z,101297.72
2019-01-02T16:09:51.208Z,101299.04
2019-01-02T16:12:54.819Z,101290.34
2019-01-02T16:15:58.411Z,101301.69
2019-01-02T16:19:02.004Z,101311.36
2019-01-02T16:22:06.531Z,101312.75
2019-01-02T16:25:10.480Z,101314.91
2019-01-02T16:28:13.928Z,101318.50
2019-01-02T16:31:17.462Z,101328.63
2019-01-02T16:34:21.061Z,101330.48
2019-01-02T16:37:24.675Z,101329.22
2019-01-02T16:40:29.186Z,101334.52
2019-01-02T16:43:32.677Z,101334.38
2019-01-02T16:46:36.126Z,101334.90
2019-01-02T16:49:39.666Z,101337.55
2019-01-02T16:52:43.186Z,101341.93
2019-01-02T16:55:46.678Z,101343.25
2019-01-02T16:58:50.296Z,101351.19
2019-01-02T17:01:53.924Z,101349.87
2019-01-02T17:04:57.505Z,101345.90
2019-01-02T17:08:04.970Z,101355.16
2019-01-02T17:11:08.534Z,101348.93
2019-01-02T17:14:13.022Z,101362.16
2019-01-02T17:17:23.566Z,101357.80
2019-01-02T17:20:27.237Z,101369.71
2019-01-02T17:23:30.891Z,101383.33
2019-01-02T17:26:34.379Z,101389.94
2019-01-02T17:29:38.920Z,101393.91
2019-01-02T17:32:42.438Z,101401.84
2019-01-02T17:35:45.942Z,101405.43
2019-01-02T17:38:49.414Z,101421.30
2019-01-02T17:41:52.934Z,101422.63
2019-01-02T17:44:56.409Z,101441.15
2019-01-02T17:48:00.027Z,101435.86
2019-01-02T17:51:03.651Z,101446.44
2019-01-02T17:54:07.248Z,101446.83
2019-01-02T17:57:10.850Z,101447.77
2019-01-02T18:00:14.400Z,101457.03
2019-01-02T18:03:18.848Z,101464.41
2019-01-02T18:06:22.364Z,101462.70
2019-01-02T18:09:25.876Z,101475.94
2019-01-02T18:12:29.390Z,101482.09
2019-01-02T18:15:32.862Z,101483.09
2019-01-02T18:18:36.354Z,101482.95
2019-01-02T18:21:40.904Z,101489.38
2019-01-02T18:24:44.385Z,101493.66
2019-01-02T18:27:47.872Z,101490.50
2019-01-02T18:30:51.401Z,101501.41
2019-01-02T18:33:54.884Z,101504.79
2019-01-02T18:36:58.385Z,101504.79
2019-01-02T18:40:04.259Z,101512.56
2019-01-02T18:43:07.925Z,101528.31
2019-01-02T18:46:11.606Z,101528.73
2019-01-02T18:49:15.086Z,101526.41
2019-01-02T18:52:24.495Z,101529.89
2019-01-02T18:55:33.734Z,101531.63
2019-01-02T18:58:39.336Z,101539.44
2019-01-02T19:01:42.792Z,101546.84
2019-01-02T19:04:46.297Z,101552.00
2019-01-02T19:07:49.795Z,101557.67
2019-01-02T19:10:53.298Z,101552.31
2019-01-02T19:13:57.130Z,101554.89
2019-01-02T19:17:00.819Z,101550.41
2019-01-02T19:20:05.017Z,101567.12
2019-01-02T19:23:10.574Z,101562.64
2019-01-02T19:26:15.087Z,101574.88
2019-01-02T19:29:18.592Z,101571.33
2019-01-02T19:32:22.143Z,101577.39
2019-01-02T19:35:25.586Z,101581.81
2019-01-02T19:38:29.094Z,101585.59
2019-01-02T19:41:36.810Z,101586.01
2019-01-02T19:44:40.409Z,101589.98
2019-01-02T19:47:43.850Z,101586.84
2019-01-02T19:50:49.462Z,101581.09
2019-01-02T19:53:52.964Z,101583.19
2019-01-02T19:56:57.562Z,101589.81
2019-01-02T20:00:03.083Z,101595.91
2019-01-02T20:03:06.727Z,101588.84
2019-01-02T20:06:12.286Z,101592.33
2019-01-02T20:09:17.133Z,101590.09
2019-01-02T20:12:20.717Z,101591.81
2019-01-02T20:15:25.255Z,101599.75
2019-01-02T20:18:32.119Z,101597.91
2019-01-02T20:21:35.731Z,101601.47
2019-01-02T20:24:39.228Z,101602.27
2019-01-02T20:27:42.721Z,101603.98
2019-01-02T20:30:47.273Z,101601.33
2019-01-02T20:33:51.929Z,101605.69
2019-01-02T20:36:55.481Z,101604.78
2019-01-02T20:39:59.014Z,101600.25
2019-01-02T20:43:02.490Z,101602.91
2019-01-02T20:46:06.017Z,101608.66
2019-01-02T20:49:10.533Z,101612.14
2019-01-02T20:52:14.015Z,101614.34
2019-01-02T20:55:17.524Z,101613.78
2019-01-02T20:58:21.020Z,101611.55
2019-01-02T21:01:24.529Z,101616.86
2019-01-02T21:04:30.061Z,101612.81
2019-01-02T21:07:33.588Z,101611.48
2019-01-02T21:10:37.216Z,101618.05
2019-01-02T21:13:40.878Z,101612.33
2019-01-02T21:16:44.502Z,101615.39
2019-01-02T21:19:48.039Z,101615.78
2019-01-02T21:22:51.490Z,101621.08
2019-01-02T21:25:56.020Z,101619.75
2019-01-02T21:28:59.915Z,101614.84
2019-01-02T21:32:03.462Z,101622.79
2019-01-02T21:35:07.977Z,101616.55
2019-01-02T21:38:11.507Z,101616.16
2019-01-02T21:41:17.033Z,101610.23
2019-01-02T21:44:21.515Z,101622.45
2019-01-02T21:47:25.019Z,101610.73
2019-01-02T21:50:29.171Z,101612.75
2019-01-02T21:53:34.683Z,101613.40
2019-01-02T21:56:38.193Z,101610.50
2019-01-02T21:59:41.683Z,101611.95
2019-01-02T22:02:45.184Z,101615.22
2019-01-02T22:05:49.176Z,101619.64
2019-01-02T22:08:54.856Z,101617.13
2019-01-02T22:11:59.416Z,101619.91
2019-01-02T22:15:02.874Z,101620.91
2019-01-02T22:18:06.438Z,101614.36
2019-01-02T22:21:12.384Z,101627.66
2019-01-02T22:24:18.921Z,101626.82
2019-01-02T22:27:23.434Z,101626.95
2019-01-02T22:30:26.933Z,101626.53
2019-01-02T22:33:30.450Z,101629.72
2019-01-02T22:36:33.968Z,101637.73
2019-01-02T22:39:42.564Z,101640.83
2019-01-02T22:42:51.170Z,101643.22
2019-01-02T22:45:56.720Z,101646.41
2019-01-02T22:49:02.272Z,101655.73
2019-01-02T22:52:05.786Z,101648.77
2019-01-02T22:55:09.275Z,101645.73
2019-01-02T22:58:13.815Z,101642.69
2019-01-02T23:01:30.707Z,101646.34
2019-01-02T23:04:52.318Z,101650.77
2019-01-02T23:08:19.050Z,101652.59
2019-01-02T23:11:32.660Z,101652.20
2019-01-02T23:14:56.500Z,101658.50
2019-01-02T23:18:12.613Z,101655.91
2019-01-02T23:21:44.778Z,101661.20
2019-01-02T23:25:07.521Z,101659.08
2019-01-02T23:28:39.700Z,101658.30
2019-01-02T23:32:01.275Z,101658.77
2019-01-02T23:35:21.621Z,101671.61
2019-01-02T23:38:53.323Z,101668.58
2019-01-02T23:42:14.847Z,101674.77
2019-01-02T23:45:47.174Z,101676.97
2019-01-02T23:49:16.077Z,101676.52
2019-01-02T23:52:53.082Z,101687.11
2019-01-02T23:56:17.037Z,101689.33
2019-01-02T23:59:34.267Z,101690.27
